Terminal Aerodrome Forecast
Issued by NWS

Home | Current Version | Previous Version | Text Only | Print | Product List | Glossary On
Versions: 1 2 3 4 5 6 7 8 9 10 11 12 13 14 15 16 17 18 19 20 21
643
FTUS41 KBGM 242340
TAFELM
TAF
KELM 242340Z 2500/2524 18006KT P6SM FEW250
     FM250400 19007KT P6SM FEW250 WS020/20035KT
     FM251300 19005KT P6SM BKN140 PROB30 2513/2517 -SHRA
     FM251700 22009KT P6SM OVC045=

USA.gov is the U.S. government's official web portal to all federal, state and local government web resources and services.